Time;durP1;ratioP1;P1;durP2;ratioP2;P2;SDS_P1;SDS_P2;PMS_P1;PMS_P2;Temp;Humidity;BMP_temperature;BMP_pressure;BME280_temperature;BME280_humidity;BME280_pressure;Samples;Min_cycle;Max_cycle;Signal;HPM_P1;HPM_P2
2022/07/14 00:01:20;;;;;;;7.53;2.05;;;24.00;69.10;;;;;;6243566;22;20008;-68
2022/07/14 00:03:46;;;;;;;3.85;1.65;;;24.00;69.30;;;;;;6243691;22;20003;-68
2022/07/14 00:06:12;;;;;;;5.10;1.80;;;23.90;69.40;;;;;;6242563;22;20008;-69
2022/07/14 00:08:38;;;;;;;2.42;1.63;;;24.00;69.40;;;;;;6244938;22;19996;-68
2022/07/14 00:11:04;;;;;;;2.70;2.00;;;24.00;69.20;;;;;;6244773;22;20320;-68
2022/07/14 00:13:30;;;;;;;6.43;1.90;;;24.00;69.30;;;;;;6244490;22;20039;-68
2022/07/14 00:15:56;;;;;;;3.78;1.90;;;24.00;69.30;;;;;;6245096;22;20001;-68
2022/07/14 00:18:22;;;;;;;2.42;1.80;;;23.90;69.30;;;;;;6244886;22;20070;-69
2022/07/14 00:20:49;;;;;;;3.58;1.73;;;23.90;69.30;;;;;;6244170;22;20011;-68
2022/07/14 00:23:15;;;;;;;3.88;1.60;;;23.90;69.30;;;;;;6245205;22;20039;-68
2022/07/14 00:25:41;;;;;;;6.03;1.98;;;23.90;69.50;;;;;;6244407;22;20019;-68
2022/07/14 00:28:07;;;;;;;5.28;1.83;;;23.80;69.40;;;;;;6244528;22;20004;-68
2022/07/14 00:30:33;;;;;;;5.05;2.00;;;23.80;69.50;;;;;;6244934;22;20083;-67
2022/07/14 00:32:59;;;;;;;2.53;1.85;;;23.80;69.60;;;;;;6244107;22;20441;-69
2022/07/14 00:35:24;;;;;;;3.20;1.70;;;23.90;69.50;;;;;;6244336;22;20042;-68
2022/07/14 00:37:50;;;;;;;3.63;1.83;;;23.90;69.40;;;;;;6244851;22;20036;-68
2022/07/14 00:40:16;;;;;;;6.05;1.75;;;23.90;69.30;;;;;;6244410;22;20026;-68
2022/07/14 00:42:47;;;;;;;2.72;1.60;;;23.80;69.20;;;;;;6244883;22;20034;-68
2022/07/14 00:45:19;;;;;;;5.15;2.00;;;23.80;69.20;;;;;;6244017;22;20012;-69
2022/07/14 00:47:46;;;;;;;5.82;1.75;;;23.80;69.00;;;;;;6244768;23;20350;-68
2022/07/14 00:50:15;;;;;;;6.78;1.70;;;23.80;68.80;;;;;;6246477;22;20008;-68
2022/07/14 00:52:42;;;;;;;4.80;1.67;;;23.80;68.90;;;;;;6244480;22;20027;-68
2022/07/14 00:55:14;;;;;;;4.47;1.73;;;23.80;69.10;;;;;;6243943;22;20066;-68
2022/07/14 00:57:40;;;;;;;6.35;1.88;;;23.70;69.20;;;;;;6242962;22;20004;-69
2022/07/14 01:00:09;;;;;;;2.70;1.98;;;23.60;69.50;;;;;;6240486;22;20016;-68
2022/07/14 01:02:35;;;;;;;2.28;1.52;;;23.60;69.40;;;;;;6240769;22;20016;-68
2022/07/14 01:05:01;;;;;;;2.50;1.67;;;23.60;69.80;;;;;;6242926;22;20012;-68
2022/07/14 01:07:27;;;;;;;4.53;1.67;;;23.50;70.00;;;;;;6244165;22;20023;-68
2022/07/14 01:09:52;;;;;;;7.22;2.17;;;23.50;70.10;;;;;;6245837;22;20008;-68
2022/07/14 01:12:18;;;;;;;5.47;1.98;;;23.50;70.30;;;;;;6247087;22;20366;-67
2022/07/14 01:14:45;;;;;;;3.33;1.90;;;23.40;70.30;;;;;;6245456;22;20082;-70
2022/07/14 01:17:11;;;;;;;4.85;1.80;;;23.40;70.30;;;;;;6245795;22;20000;-68
2022/07/14 01:19:37;;;;;;;2.33;1.85;;;23.40;70.30;;;;;;6244854;22;20423;-68
2022/07/14 01:22:04;;;;;;;3.65;1.88;;;23.40;70.30;;;;;;6245004;22;20000;-68
2022/07/14 01:24:30;;;;;;;6.97;2.28;;;23.40;70.30;;;;;;6245527;22;20004;-68
2022/07/14 01:26:56;;;;;;;7.13;1.95;;;23.30;70.30;;;;;;6245483;22;20012;-68
2022/07/14 01:29:24;;;;;;;6.80;1.85;;;23.30;70.30;;;;;;6247430;22;20035;-69
2022/07/14 01:31:50;;;;;;;5.20;1.83;;;23.30;70.30;;;;;;6245153;22;20355;-68
2022/07/14 01:34:16;;;;;;;5.45;1.88;;;23.20;71.10;;;;;;6245031;22;20015;-68
2022/07/14 01:36:42;;;;;;;5.65;2.00;;;23.30;70.60;;;;;;6245443;22;20319;-68
2022/07/14 01:39:08;;;;;;;4.75;1.58;;;23.30;70.60;;;;;;6245404;22;20007;-68
2022/07/14 01:41:34;;;;;;;4.55;1.67;;;23.30;70.60;;;;;;6245501;22;19996;-69
2022/07/14 01:44:00;;;;;;;3.97;1.92;;;23.20;70.80;;;;;;6245483;22;20047;-68
2022/07/14 01:46:27;;;;;;;4.75;1.75;;;23.20;71.10;;;;;;6245409;22;20330;-68
2022/07/14 01:48:53;;;;;;;3.35;1.90;;;23.20;71.20;;;;;;6245718;22;20008;-68
2022/07/14 01:51:18;;;;;;;6.50;2.20;;;23.20;71.20;;;;;;6245541;22;20010;-68
2022/07/14 01:53:44;;;;;;;3.35;1.80;;;23.10;71.40;;;;;;6245434;22;20000;-68
2022/07/14 01:56:11;;;;;;;6.20;1.80;;;23.10;71.50;;;;;;6244844;22;20430;-68
2022/07/14 01:58:37;;;;;;;5.40;1.92;;;23.10;71.60;;;;;;6244638;22;19996;-68
2022/07/14 02:03:53;;;;;;;4.47;2.20;;;23.00;71.70;;;;;;6245435;23;20386;-68
2022/07/14 02:06:18;;;;;;;2.72;1.83;;;23.00;71.70;;;;;;6244790;22;20008;-68
2022/07/14 02:08:44;;;;;;;2.75;1.73;;;23.10;71.80;;;;;;6245033;22;20030;-68
2022/07/14 02:13:54;;;;;;;3.28;2.13;;;23.00;71.90;;;;;;6245329;23;20081;-68
2022/07/14 02:16:20;;;;;;;6.15;1.98;;;23.00;71.80;;;;;;6244985;22;20474;-68
2022/07/14 02:18:45;;;;;;;7.75;2.03;;;23.00;71.80;;;;;;6245628;22;20004;-68
2022/07/14 02:21:11;;;;;;;8.35;2.10;;;23.00;71.60;;;;;;6245249;22;20050;-68
2022/07/14 02:23:37;;;;;;;4.25;1.80;;;23.00;71.60;;;;;;6246384;23;20003;-68
2022/07/14 02:26:03;;;;;;;3.80;1.70;;;23.00;71.60;;;;;;6245111;22;20497;-68
2022/07/14 02:28:28;;;;;;;7.03;2.38;;;23.00;71.40;;;;;;6245050;22;20019;-68
2022/07/14 02:30:54;;;;;;;3.35;1.90;;;23.00;71.20;;;;;;6246047;22;20000;-68
2022/07/14 02:33:20;;;;;;;8.68;2.35;;;23.00;71.10;;;;;;6245102;22;20308;-68
2022/07/14 02:35:46;;;;;;;4.78;1.85;;;23.00;70.90;;;;;;6244681;22;20001;-68
2022/07/14 02:38:12;;;;;;;2.55;1.90;;;23.00;70.90;;;;;;6245239;22;20374;-69
2022/07/14 02:40:37;;;;;;;4.53;1.90;;;23.00;70.90;;;;;;6244497;22;20001;-68
2022/07/14 02:43:03;;;;;;;4.50;1.85;;;23.00;70.80;;;;;;6244668;22;19996;-69
2022/07/14 02:45:29;;;;;;;4.07;2.00;;;23.00;70.90;;;;;;6244542;22;20065;-68
2022/07/14 02:47:54;;;;;;;3.35;1.90;;;22.90;71.00;;;;;;6244595;22;20000;-68
2022/07/14 02:50:20;;;;;;;5.68;2.00;;;22.90;71.20;;;;;;6244943;22;20069;-68
2022/07/14 02:52:46;;;;;;;2.40;2.08;;;22.90;71.20;;;;;;6244663;22;20003;-69
2022/07/14 02:55:11;;;;;;;6.05;1.95;;;22.90;71.10;;;;;;6244747;22;20004;-69
2022/07/14 02:57:37;;;;;;;3.72;1.80;;;22.90;71.20;;;;;;6244754;22;20004;-68
2022/07/14 03:00:05;;;;;;;2.72;1.90;;;22.80;71.50;;;;;;6245091;22;20342;-68
2022/07/14 03:02:32;;;;;;;7.75;2.30;;;22.80;71.80;;;;;;6244644;22;20513;-68
2022/07/14 03:04:58;;;;;;;4.15;1.70;;;22.70;72.10;;;;;;6244941;22;20039;-68
2022/07/14 03:07:23;;;;;;;3.72;1.98;;;22.70;72.10;;;;;;6244623;22;20004;-67
2022/07/14 03:09:49;;;;;;;5.72;1.92;;;22.60;72.00;;;;;;6244825;22;20426;-68
2022/07/14 03:12:15;;;;;;;3.35;1.98;;;22.60;72.30;;;;;;6244524;22;19999;-69
2022/07/14 03:14:40;;;;;;;4.28;2.03;;;22.50;72.70;;;;;;6244797;22;20006;-66
2022/07/14 03:17:06;;;;;;;6.32;1.83;;;22.50;73.00;;;;;;6244566;22;20344;-68
2022/07/14 03:19:32;;;;;;;4.97;2.03;;;22.50;73.00;;;;;;6245037;22;19996;-68
2022/07/14 03:21:58;;;;;;;4.03;1.92;;;22.60;73.10;;;;;;6244760;22;20011;-68
2022/07/14 03:24:24;;;;;;;6.85;1.90;;;22.60;73.00;;;;;;6244718;22;20054;-68
2022/07/14 03:26:50;;;;;;;3.00;2.05;;;22.50;72.90;;;;;;6245741;22;20060;-68
2022/07/14 03:29:15;;;;;;;5.53;1.80;;;22.50;72.90;;;;;;6243887;22;19996;-68
2022/07/14 03:31:41;;;;;;;2.65;1.88;;;22.60;73.00;;;;;;6244516;22;20007;-68
2022/07/14 03:34:07;;;;;;;2.75;1.65;;;22.50;72.80;;;;;;6244496;22;20008;-68
2022/07/14 03:36:33;;;;;;;3.78;2.15;;;22.50;72.90;;;;;;6244330;22;19996;-69
2022/07/14 03:38:58;;;;;;;7.32;1.85;;;22.50;73.10;;;;;;6244218;22;20000;-69
2022/07/14 03:41:25;;;;;;;6.93;1.95;;;22.50;72.90;;;;;;6243910;22;19996;-68
2022/07/14 03:43:50;;;;;;;4.65;1.75;;;22.50;73.00;;;;;;6243904;22;20502;-68
2022/07/14 03:46:16;;;;;;;3.42;1.95;;;22.40;73.10;;;;;;6243842;22;20059;-68
2022/07/14 03:48:42;;;;;;;4.28;2.50;;;22.40;73.30;;;;;;6243778;22;20031;-67
2022/07/14 03:51:08;;;;;;;5.65;2.00;;;22.30;73.40;;;;;;6244250;22;20059;-68
2022/07/14 03:53:34;;;;;;;5.97;2.15;;;22.30;73.40;;;;;;6243778;22;20431;-69
2022/07/14 03:56:00;;;;;;;3.85;1.95;;;22.20;73.60;;;;;;6243842;22;20019;-68
2022/07/14 03:58:26;;;;;;;7.95;2.20;;;22.20;74.10;;;;;;6243366;22;20035;-68
2022/07/14 04:00:53;;;;;;;5.35;1.98;;;22.20;74.20;;;;;;6242463;22;20020;-68
2022/07/14 04:03:18;;;;;;;3.38;2.10;;;22.20;74.20;;;;;;6242843;22;20400;-68
2022/07/14 04:05:45;;;;;;;4.65;2.10;;;22.20;74.30;;;;;;6242849;22;20039;-68
2022/07/14 04:08:12;;;;;;;4.28;2.00;;;22.20;74.20;;;;;;6242915;22;20087;-68
2022/07/14 04:10:37;;;;;;;5.10;2.30;;;22.20;74.00;;;;;;6242568;22;20005;-68
2022/07/14 04:13:04;;;;;;;5.00;1.70;;;22.20;74.40;;;;;;6243491;22;20084;-68
2022/07/14 04:15:30;;;;;;;4.75;2.05;;;22.20;74.50;;;;;;6242980;22;20007;-69
2022/07/14 04:17:57;;;;;;;3.58;1.77;;;22.20;74.60;;;;;;6245250;22;20000;-68
2022/07/14 04:20:23;;;;;;;2.50;1.60;;;22.20;74.40;;;;;;6243397;22;20429;-68
2022/07/14 04:22:50;;;;;;;3.25;1.80;;;22.30;74.40;;;;;;6243231;22;20423;-68
2022/07/14 04:25:16;;;;;;;6.05;1.88;;;22.40;74.10;;;;;;6243364;22;20000;-68
2022/07/14 04:27:42;;;;;;;2.85;1.95;;;22.40;73.90;;;;;;6242551;22;20008;-68
2022/07/14 04:30:11;;;;;;;3.28;1.95;;;22.50;73.90;;;;;;6243093;22;20004;-68
2022/07/14 04:32:37;;;;;;;5.50;1.67;;;22.60;73.70;;;;;;6243492;22;20000;-68
2022/07/14 04:35:04;;;;;;;3.80;1.70;;;22.60;73.40;;;;;;6244766;22;20000;-69
2022/07/14 04:37:30;;;;;;;2.88;1.60;;;22.70;73.20;;;;;;6243491;22;20079;-68
2022/07/14 04:39:56;;;;;;;5.65;2.58;;;22.70;73.00;;;;;;6243688;22;20441;-68
2022/07/14 04:42:22;;;;;;;5.85;2.05;;;22.80;72.80;;;;;;6244416;22;20362;-69
2022/07/14 04:44:48;;;;;;;6.10;1.98;;;22.90;72.60;;;;;;6243688;22;20005;-69
2022/07/14 04:47:14;;;;;;;3.80;2.00;;;22.90;72.00;;;;;;6242922;22;20427;-68
2022/07/14 04:52:25;;;;;;;5.88;2.03;;;23.00;71.60;;;;;;6243309;23;20015;-67
2022/07/14 04:54:51;;;;;;;4.78;1.65;;;23.00;71.50;;;;;;6243991;22;19996;-69
2022/07/14 04:57:17;;;;;;;4.00;2.00;;;23.10;71.10;;;;;;6245020;22;20419;-69
2022/07/14 04:59:43;;;;;;;5.95;1.50;;;23.10;70.60;;;;;;6244589;22;20019;-68
2022/07/14 05:02:08;;;;;;;2.35;1.50;;;23.20;70.50;;;;;;6245118;22;20004;-70
2022/07/14 05:04:35;;;;;;;11.63;1.70;;;23.20;70.50;;;;;;6244195;22;20423;-68
2022/07/14 05:07:00;;;;;;;11.35;1.95;;;23.30;70.40;;;;;;6246121;22;20043;-69
2022/07/14 05:09:30;;;;;;;6.20;1.88;;;23.30;70.30;;;;;;6245389;22;20336;-71
2022/07/14 05:11:55;;;;;;;5.53;1.48;;;23.30;70.20;;;;;;6246551;22;20062;-71
2022/07/14 05:14:21;;;;;;;7.93;1.70;;;23.30;69.80;;;;;;6245400;22;20004;-71
2022/07/14 05:16:48;;;;;;;6.57;2.08;;;23.30;69.60;;;;;;6246960;22;20011;-71
2022/07/14 05:19:15;;;;;;;7.88;2.20;;;23.40;70.20;;;;;;6247210;22;20008;-71
2022/07/14 05:21:41;;;;;;;8.05;2.50;;;23.40;71.70;;;;;;6247164;22;20011;-72
2022/07/14 05:24:07;;;;;;;10.75;2.53;;;23.40;72.20;;;;;;6246182;22;20343;-70
2022/07/14 05:26:33;;;;;;;11.23;2.38;;;23.40;72.50;;;;;;6247113;22;20008;-72
2022/07/14 05:28:58;;;;;;;4.45;2.20;;;23.50;72.40;;;;;;6246329;22;20000;-72
2022/07/14 05:31:24;;;;;;;9.90;2.03;;;23.50;72.20;;;;;;6246348;22;20000;-71
2022/07/14 05:33:50;;;;;;;16.60;2.35;;;23.50;71.90;;;;;;6247057;22;20442;-72
2022/07/14 05:36:16;;;;;;;5.10;2.10;;;23.50;71.80;;;;;;6247532;22;20004;-72
2022/07/14 05:38:42;;;;;;;8.82;1.63;;;23.60;71.50;;;;;;6247221;22;20359;-71
2022/07/14 05:41:08;;;;;;;7.93;2.72;;;23.60;70.90;;;;;;6247030;22;20004;-71
2022/07/14 05:43:34;;;;;;;4.97;2.30;;;23.60;70.50;;;;;;6246573;22;20008;-71
2022/07/14 05:46:07;;;;;;;10.48;2.50;;;23.60;70.80;;;;;;6246586;22;20016;-70
2022/07/14 05:48:34;;;;;;;9.52;2.78;;;23.60;71.10;;;;;;6247164;22;20004;-72
2022/07/14 05:51:19;;;;;;;7.50;2.60;;;23.60;71.40;;;;;;6247014;22;20008;-71
2022/07/14 05:53:46;;;;;;;6.82;2.42;;;23.60;71.60;;;;;;6246608;22;20046;-71
2022/07/14 05:56:12;;;;;;;12.75;2.63;;;23.60;71.70;;;;;;6246716;22;20004;-71
2022/07/14 05:58:39;;;;;;;12.70;2.60;;;23.60;71.60;;;;;;6246583;22;20058;-70
2022/07/14 06:01:07;;;;;;;13.38;2.45;;;23.60;71.60;;;;;;6246694;22;20351;-71
2022/07/14 06:03:34;;;;;;;12.93;2.63;;;23.60;71.60;;;;;;6246963;22;20035;-71
2022/07/14 06:06:05;;;;;;;8.85;2.05;;;23.60;71.40;;;;;;6246518;22;20076;-69
2022/07/14 06:08:32;;;;;;;6.82;1.92;;;23.70;70.80;;;;;;6246740;22;20004;-71
2022/07/14 06:10:58;;;;;;;2.05;1.48;;;23.80;70.00;;;;;;6246298;22;20000;-71
2022/07/14 06:13:25;;;;;;;5.80;1.60;;;23.80;69.30;;;;;;6246536;22;20386;-70
2022/07/14 06:15:51;;;;;;;5.40;1.67;;;23.80;68.90;;;;;;6246602;22;20004;-71
2022/07/14 06:18:18;;;;;;;6.32;2.15;;;23.90;68.70;;;;;;6246954;22;20457;-71
2022/07/14 06:20:44;;;;;;;3.35;1.67;;;23.90;68.30;;;;;;6247087;22;20038;-71
2022/07/14 06:23:10;;;;;;;4.03;1.67;;;23.90;68.00;;;;;;6246722;22;20063;-71
2022/07/14 06:25:37;;;;;;;7.53;2.20;;;24.00;67.70;;;;;;6245782;22;20435;-71
2022/07/14 06:28:03;;;;;;;3.83;1.73;;;24.00;67.40;;;;;;6245902;22;20000;-72
2022/07/14 06:30:30;;;;;;;5.60;1.83;;;24.10;67.20;;;;;;6245710;22;20008;-73
2022/07/14 06:32:56;;;;;;;6.97;1.75;;;24.10;67.10;;;;;;6246382;22;20050;-72
2022/07/14 06:35:22;;;;;;;9.88;2.17;;;24.10;66.90;;;;;;6245735;22;20024;-72
2022/07/14 06:37:48;;;;;;;3.00;1.48;;;24.20;66.70;;;;;;6247954;22;20000;-72
2022/07/14 06:40:14;;;;;;;7.03;1.65;;;24.20;66.50;;;;;;6246476;22;20008;-72
2022/07/14 06:42:40;;;;;;;10.35;1.58;;;24.30;66.40;;;;;;6246777;22;20411;-72
2022/07/14 06:45:06;;;;;;;5.70;1.58;;;24.30;66.20;;;;;;6246071;22;20370;-73
2022/07/14 06:47:32;;;;;;;6.68;1.70;;;24.40;66.10;;;;;;6246229;22;20058;-72
2022/07/14 06:49:59;;;;;;;5.05;1.30;;;24.50;65.70;;;;;;6246561;22;20000;-72
2022/07/14 06:52:25;;;;;;;5.72;1.40;;;24.50;65.10;;;;;;6245890;22;20052;-72
2022/07/14 06:54:52;;;;;;;4.80;1.50;;;24.60;64.70;;;;;;6245908;22;20003;-72
2022/07/14 06:57:18;;;;;;;6.50;1.58;;;24.60;64.60;;;;;;6246124;22;20042;-72
2022/07/14 06:59:44;;;;;;;9.85;1.80;;;24.70;64.60;;;;;;6245976;22;20020;-72
2022/07/14 07:02:10;;;;;;;49.95;4.72;;;24.80;64.60;;;;;;6246305;22;20008;-75
2022/07/14 07:04:35;;;;;;;24.88;2.47;;;24.80;65.00;;;;;;6243692;22;20000;-82
2022/07/14 07:07:01;;;;;;;16.90;2.20;;;24.90;65.40;;;;;;6245624;22;20012;-75
2022/07/14 07:09:27;;;;;;;5.28;1.63;;;24.90;65.70;;;;;;6245205;22;20004;-75
2022/07/14 07:11:53;;;;;;;3.78;1.50;;;25.00;65.50;;;;;;6245721;22;20010;-74
2022/07/14 07:14:19;;;;;;;5.93;1.55;;;25.00;64.30;;;;;;6245138;22;20000;-75
2022/07/14 07:16:47;;;;;;;7.82;1.70;;;25.10;64.00;;;;;;6245256;22;20358;-74
2022/07/14 07:19:13;;;;;;;4.45;1.70;;;25.10;63.70;;;;;;6245748;22;20023;-75
2022/07/14 07:21:38;;;;;;;5.13;1.73;;;25.20;63.50;;;;;;6245309;22;20008;-74
2022/07/14 07:24:04;;;;;;;3.83;1.50;;;25.20;63.40;;;;;;6244636;22;19996;-74
2022/07/14 07:26:35;;;;;;;9.63;1.50;;;25.30;63.10;;;;;;6244928;22;20016;-79
2022/07/14 07:29:02;;;;;;;7.57;1.50;;;25.30;62.80;;;;;;6245673;22;19996;-74
2022/07/14 07:31:28;;;;;;;6.30;1.60;;;25.30;62.40;;;;;;6245382;22;20551;-74
2022/07/14 07:33:54;;;;;;;9.15;2.35;;;25.40;62.30;;;;;;6245184;23;20003;-81
2022/07/14 07:36:21;;;;;;;7.47;1.40;;;25.40;61.80;;;;;;6245879;22;20012;-79
2022/07/14 07:38:46;;;;;;;7.45;1.65;;;25.40;61.70;;;;;;6243033;23;20332;-74
2022/07/14 07:41:12;;;;;;;7.65;1.60;;;25.50;61.70;;;;;;6245615;22;20004;-75
2022/07/14 07:43:38;;;;;;;4.97;1.40;;;25.40;61.40;;;;;;6245503;22;20419;-74
2022/07/14 07:46:05;;;;;;;11.05;1.60;;;25.50;61.20;;;;;;6245492;22;20066;-75
2022/07/14 07:48:32;;;;;;;9.75;1.40;;;25.50;60.60;;;;;;6245582;22;20004;-74
2022/07/14 07:50:58;;;;;;;5.55;1.55;;;25.60;60.70;;;;;;6245487;22;20431;-75
2022/07/14 07:53:23;;;;;;;7.22;1.40;;;25.60;60.70;;;;;;6245691;22;20000;-75
2022/07/14 07:55:49;;;;;;;4.30;1.50;;;25.60;60.60;;;;;;6245868;22;20070;-74
2022/07/14 07:58:15;;;;;;;8.00;1.42;;;25.70;60.60;;;;;;6246396;22;20011;-74
2022/07/14 08:00:41;;;;;;;7.28;1.58;;;25.70;60.70;;;;;;6245860;22;20386;-73
2022/07/14 08:03:08;;;;;;;7.50;1.50;;;25.70;60.80;;;;;;6245436;22;20032;-73
2022/07/14 08:05:33;;;;;;;7.85;1.52;;;25.70;60.70;;;;;;6245695;22;20006;-74
2022/07/14 08:08:00;;;;;;;9.70;1.70;;;25.80;60.60;;;;;;6245622;22;20000;-73
2022/07/14 08:10:26;;;;;;;11.45;1.50;;;25.80;60.30;;;;;;6246086;22;20066;-77
2022/07/14 08:12:52;;;;;;;13.45;1.88;;;25.80;59.70;;;;;;6245580;22;20457;-78
2022/07/14 08:15:18;;;;;;;14.05;1.60;;;25.80;59.40;;;;;;6245853;22;19996;-74
2022/07/14 08:17:44;;;;;;;8.95;1.40;;;25.80;59.60;;;;;;6245520;22;20000;-73
2022/07/14 08:20:10;;;;;;;8.75;1.42;;;25.90;59.80;;;;;;6245728;22;20096;-73
2022/07/14 08:22:36;;;;;;;3.25;1.40;;;25.90;59.70;;;;;;6245615;23;20080;-73
2022/07/14 08:25:05;;;;;;;5.63;1.60;;;25.90;59.40;;;;;;6245475;22;20007;-74
2022/07/14 08:27:30;;;;;;;5.28;1.40;;;25.90;59.10;;;;;;6245644;22;20008;-73
2022/07/14 08:29:56;;;;;;;3.45;1.45;;;25.90;58.90;;;;;;6247452;22;20348;-73
2022/07/14 08:32:43;;;;;;;3.13;1.13;;;26.00;59.00;;;;;;6247995;22;20011;-73
2022/07/14 08:35:11;;;;;;;7.28;1.40;;;26.10;59.10;;;;;;6247615;22;20028;-73
2022/07/14 08:37:37;;;;;;;8.70;1.60;;;26.10;59.00;;;;;;6247580;22;20074;-78
2022/07/14 08:40:06;;;;;;;2.85;1.20;;;26.20;58.70;;;;;;6247957;22;20080;-77
2022/07/14 08:42:32;;;;;;;4.70;1.40;;;26.30;58.20;;;;;;6246930;22;20001;-79
2022/07/14 08:44:58;;;;;;;5.28;1.25;;;26.30;57.70;;;;;;6246924;22;20026;-72
2022/07/14 08:47:25;;;;;;;4.00;1.30;;;26.40;57.50;;;;;;6246974;22;20004;-71
2022/07/14 08:49:51;;;;;;;9.18;1.60;;;26.40;57.60;;;;;;6246542;22;20062;-73
2022/07/14 08:52:17;;;;;;;8.40;1.30;;;26.50;57.80;;;;;;6247042;22;20362;-77
2022/07/14 08:54:47;;;;;;;5.65;1.10;;;26.50;58.00;;;;;;6247063;22;19997;-78
2022/07/14 08:57:13;;;;;;;4.82;1.38;;;26.60;57.60;;;;;;6247013;22;20067;-73
2022/07/14 08:59:40;;;;;;;5.90;1.08;;;26.70;57.40;;;;;;6247098;22;20015;-73
2022/07/14 09:02:06;;;;;;;5.00;1.33;;;26.70;57.10;;;;;;6247051;22;20004;-74
2022/07/14 09:04:32;;;;;;;6.05;1.35;;;26.80;56.90;;;;;;6245637;22;20070;-73
2022/07/14 09:06:57;;;;;;;4.10;1.42;;;26.80;56.60;;;;;;6245879;22;20012;-73
2022/07/14 09:09:30;;;;;;;11.02;1.48;;;26.80;56.80;;;;;;6246719;22;20328;-72
2022/07/14 09:12:06;;;;;;;11.95;1.30;;;26.90;57.10;;;;;;6246934;22;20011;-73
2022/07/14 09:17:26;;;;;;;3.45;1.48;;;27.10;56.70;;;;;;6246718;23;20142;-72
2022/07/14 09:20:07;;;;;;;5.03;1.02;;;27.20;56.60;;;;;;6246202;22;20007;-73
2022/07/14 09:22:36;;;;;;;5.85;1.20;;;27.30;56.10;;;;;;6245669;22;20011;-72
2022/07/14 09:25:05;;;;;;;10.52;1.30;;;27.30;56.30;;;;;;6246005;22;20027;-77
2022/07/14 09:27:32;;;;;;;3.65;1.23;;;27.40;56.20;;;;;;6246546;22;20004;-74
2022/07/14 09:29:58;;;;;;;7.13;1.10;;;27.40;56.10;;;;;;6246687;22;20311;-75
2022/07/14 09:32:55;;;;;;;15.55;2.58;;;27.50;56.20;;;;;;6244535;23;20062;-74
2022/07/14 09:35:39;;;;;;;18.70;1.88;;;27.70;56.30;;;;;;6244524;23;20372;-73
2022/07/14 09:38:19;;;;;;;6.28;1.52;;;27.80;55.50;;;;;;6244852;22;20035;-73
2022/07/14 09:40:46;;;;;;;5.90;1.40;;;27.90;54.40;;;;;;6245575;22;20004;-78
2022/07/14 09:43:15;;;;;;;2.00;1.10;;;28.00;54.60;;;;;;6245573;22;20087;-73
2022/07/14 09:45:44;;;;;;;5.32;1.08;;;28.10;54.30;;;;;;6245094;22;20308;-72
2022/07/14 09:48:14;;;;;;;12.15;1.13;;;28.10;54.50;;;;;;6244850;22;20044;-72
2022/07/14 09:50:46;;;;;;;10.90;1.27;;;28.20;54.70;;;;;;6245752;22;20073;-73
2022/07/14 09:53:25;;;;;;;2.80;1.17;;;28.20;54.20;;;;;;6245928;22;20003;-72
2022/07/14 09:55:59;;;;;;;3.83;1.30;;;28.30;54.10;;;;;;6246000;22;20008;-73
2022/07/14 09:58:28;;;;;;;4.15;1.40;;;28.40;54.10;;;;;;6247708;22;20004;-73
2022/07/14 10:01:19;;;;;;;6.47;1.30;;;28.40;54.00;;;;;;6247609;22;20016;-72
2022/07/14 10:03:47;;;;;;;8.25;1.65;;;28.50;54.10;;;;;;6246812;22;20027;-73
2022/07/14 10:06:14;;;;;;;6.38;1.30;;;28.60;53.60;;;;;;6246326;22;20122;-72
2022/07/14 10:08:43;;;;;;;4.47;1.00;;;28.70;53.30;;;;;;6247161;22;20084;-72
2022/07/14 10:11:10;;;;;;;4.63;1.38;;;28.70;53.30;;;;;;6246571;22;20000;-73
2022/07/14 10:13:37;;;;;;;7.20;1.00;;;28.70;53.60;;;;;;6246798;22;20137;-73
2022/07/14 10:16:03;;;;;;;4.63;1.27;;;28.70;53.80;;;;;;6246620;22;20034;-73
2022/07/14 10:18:29;;;;;;;8.32;1.38;;;28.80;53.90;;;;;;6246840;22;19992;-73
2022/07/14 10:20:57;;;;;;;8.48;1.20;;;28.80;54.20;;;;;;6246671;22;20007;-73
2022/07/14 10:23:24;;;;;;;5.53;1.50;;;28.80;54.00;;;;;;6246581;22;20348;-73
2022/07/14 10:25:52;;;;;;;4.93;1.40;;;28.80;54.00;;;;;;6246620;22;20012;-75
2022/07/14 10:28:19;;;;;;;3.70;1.15;;;28.80;53.70;;;;;;6246269;22;20431;-73
2022/07/14 10:30:51;;;;;;;5.95;1.40;;;28.80;53.80;;;;;;6246920;22;20004;-72
2022/07/14 10:33:19;;;;;;;;;;;28.80;54.00;;;;;;6247317;22;19996;-73
2022/07/14 10:36:03;;;;;;;4.90;1.20;;;28.80;53.40;;;;;;6246540;22;19953;-72
2022/07/14 10:38:48;;;;;;;5.22;1.20;;;28.90;53.90;;;;;;6246787;22;20028;-72
2022/07/14 10:41:26;;;;;;;7.47;1.33;;;28.90;53.70;;;;;;6246751;22;20035;-73
2022/07/14 10:44:06;;;;;;;5.60;1.10;;;29.00;52.90;;;;;;6246650;22;20008;-72
2022/07/14 10:46:39;;;;;;;3.58;0.95;;;29.10;52.70;;;;;;6246569;22;20012;-73
2022/07/14 10:49:07;;;;;;;2.88;1.08;;;29.20;52.80;;;;;;6246815;22;20011;-76
2022/07/14 10:51:42;;;;;;;5.35;1.52;;;29.20;52.30;;;;;;6245932;22;20015;-74
2022/07/14 10:54:11;;;;;;;3.78;1.10;;;29.30;51.30;;;;;;6245948;22;20075;-73
2022/07/14 10:56:39;;;;;;;4.03;1.20;;;29.30;50.90;;;;;;6246247;22;20319;-76
2022/07/14 10:59:26;;;;;;;14.27;1.52;;;29.40;51.50;;;;;;6243217;22;20498;-72
2022/07/14 11:02:13;;;;;;;3.47;1.15;;;29.40;51.00;;;;;;6245782;22;20058;-73
2022/07/14 11:04:57;;;;;;;7.30;1.20;;;29.30;49.80;;;;;;6245460;22;20054;-74
2022/07/14 11:07:40;;;;;;;7.55;1.42;;;29.40;49.60;;;;;;6245475;23;20429;-72
2022/07/14 11:10:26;;;;;;;10.05;1.30;;;29.40;50.50;;;;;;6245386;22;20004;-72
2022/07/14 11:13:06;;;;;;;14.40;1.30;;;29.50;50.00;;;;;;6213499;22;20090;-73
2022/07/14 11:15:38;;;;;;;9.68;1.10;;;29.70;49.90;;;;;;6245741;22;20028;-75
2022/07/14 11:18:25;;;;;;;12.45;1.30;;;29.80;48.60;;;;;;6245555;22;20004;-73
2022/07/14 11:20:55;;;;;;;7.43;1.20;;;29.90;49.30;;;;;;6245738;22;20000;-72
2022/07/14 11:23:24;;;;;;;6.40;1.08;;;30.00;48.60;;;;;;6245780;22;20028;-72
2022/07/14 11:25:51;;;;;;;13.40;1.50;;;30.00;47.70;;;;;;6244784;22;20004;-72
2022/07/14 11:28:48;;;;;;;5.22;1.23;;;30.00;47.40;;;;;;6245008;22;20004;-73
2022/07/14 11:31:20;;;;;;;12.93;2.38;;;29.90;47.30;;;;;;6243791;23;20083;-72
2022/07/14 11:36:39;;;;;;;17.48;1.92;;;29.90;47.30;;;;;;6245529;23;20014;-72
2022/07/14 11:39:18;;;;;;;7.93;1.23;;;29.90;46.10;;;;;;6245420;22;20086;-73
2022/07/14 11:41:48;;;;;;;8.15;1.15;;;30.00;46.20;;;;;;6245471;22;20007;-73
2022/07/14 11:44:47;;;;;;;34.42;2.03;;;30.00;46.50;;;;;;6243879;22;20351;-74
2022/07/14 11:47:30;;;;;;;12.32;1.48;;;30.10;45.90;;;;;;6210383;22;20016;-73
2022/07/14 11:50:00;;;;;;;24.65;1.70;;;30.10;45.00;;;;;;6242724;22;20014;-74
2022/07/14 11:52:29;;;;;;;21.67;1.40;;;30.20;46.00;;;;;;6241779;22;20001;-75
2022/07/14 11:54:57;;;;;;;21.40;1.60;;;30.20;46.30;;;;;;6242260;22;20004;-77
2022/07/14 11:57:23;;;;;;;23.98;1.42;;;30.20;46.30;;;;;;6245004;22;20023;-73
2022/07/14 11:59:49;;;;;;;9.57;1.20;;;30.20;47.10;;;;;;6244473;22;20016;-77
2022/07/14 12:02:20;;;;;;;16.92;1.17;;;30.30;47.30;;;;;;6245261;22;20005;-74
2022/07/14 12:05:00;;;;;;;10.55;1.25;;;30.30;47.50;;;;;;6246019;22;20004;-74
2022/07/14 12:07:44;;;;;;;33.25;2.65;;;30.30;46.60;;;;;;6247366;22;20022;-74
2022/07/14 12:10:11;;;;;;;8.88;1.33;;;30.40;46.10;;;;;;6246969;22;20042;-73
2022/07/14 12:12:45;;;;;;;3.17;1.00;;;30.40;46.80;;;;;;6247209;22;20011;-73
2022/07/14 12:15:23;;;;;;;3.70;1.45;;;30.50;46.50;;;;;;6247466;22;20003;-72
2022/07/14 12:17:51;;;;;;;5.18;1.15;;;30.50;45.90;;;;;;6246767;22;20300;-76
2022/07/14 12:20:17;;;;;;;2.90;1.10;;;30.50;45.20;;;;;;6246715;22;20076;-74
2022/07/14 12:22:44;;;;;;;7.20;1.20;;;30.60;45.40;;;;;;6245951;23;20065;-72
2022/07/14 12:25:36;;;;;;;8.73;1.13;;;30.60;46.00;;;;;;6247067;22;20008;-73
2022/07/14 12:28:14;;;;;;;3.47;1.10;;;30.60;46.60;;;;;;6246561;22;20004;-72
2022/07/14 12:30:49;;;;;;;6.07;1.20;;;30.70;47.40;;;;;;6247281;22;20172;-73
2022/07/14 12:33:19;;;;;;;6.47;1.27;;;30.80;47.80;;;;;;6247254;22;20058;-76
2022/07/14 12:35:47;;;;;;;8.43;1.40;;;30.80;48.20;;;;;;6247413;22;20004;-72
2022/07/14 12:38:13;;;;;;;9.90;1.98;;;30.80;48.00;;;;;;6247791;22;20034;-73
2022/07/14 12:40:40;;;;;;;3.80;1.00;;;30.70;48.20;;;;;;6247285;22;20054;-73
2022/07/14 12:43:08;;;;;;;2.00;1.10;;;30.70;48.70;;;;;;6247087;22;20059;-73
2022/07/14 12:46:02;;;;;;;9.15;1.50;;;30.70;49.00;;;;;;6247206;22;20012;-72
2022/07/14 12:48:33;;;;;;;4.70;1.30;;;30.70;48.70;;;;;;6244879;23;20011;-73
2022/07/14 12:51:18;;;;;;;3.33;0.90;;;30.70;48.10;;;;;;6247570;22;20015;-72
2022/07/14 12:54:06;;;;;;;15.43;1.63;;;30.70;48.10;;;;;;6247219;22;20007;-71
2022/07/14 12:56:35;;;;;;;8.25;1.50;;;30.70;47.80;;;;;;6216595;22;20054;-72
2022/07/14 12:59:05;;;;;;;4.55;0.95;;;30.70;46.80;;;;;;6246998;22;20024;-72
2022/07/14 13:01:42;;;;;;;3.17;0.90;;;30.70;46.80;;;;;;6247054;22;20072;-72
2022/07/14 13:04:08;;;;;;;2.97;1.08;;;30.70;47.00;;;;;;6247076;22;20007;-71
2022/07/14 13:06:46;;;;;;;3.75;1.30;;;30.70;47.00;;;;;;6247048;22;20008;-72